createdAt,value
2023-04-08T00:00:38.144Z,37
2023-04-08T00:01:52.486Z,37
2023-04-08T00:03:06.465Z,38
2023-04-08T00:04:20.697Z,38
2023-04-08T00:06:48.904Z,38
2023-04-08T00:08:02.960Z,40
2023-04-08T00:09:17.183Z,38
2023-04-08T00:11:45.370Z,40
2023-04-08T00:12:59.460Z,42
2023-04-08T00:14:13.605Z,39
2023-04-08T00:16:41.965Z,39
2023-04-08T00:17:56.105Z,40
2023-04-08T00:19:10.174Z,41
2023-04-08T00:21:38.451Z,42
2023-04-08T00:22:52.563Z,41
2023-04-08T00:24:06.659Z,41
2023-04-08T00:25:21.925Z,40
2023-04-08T00:27:49.130Z,42
2023-04-08T00:29:03.195Z,43
2023-04-08T00:30:17.333Z,42
2023-04-08T00:32:45.754Z,42
2023-04-08T00:33:59.745Z,43
2023-04-08T00:35:13.954Z,42
2023-04-08T00:37:42.118Z,43
2023-04-08T00:38:56.268Z,44
2023-04-08T00:40:10.470Z,45
2023-04-08T00:42:38.666Z,44
2023-04-08T00:43:52.820Z,43
2023-04-08T00:45:06.946Z,43
2023-04-08T00:46:21.062Z,43
2023-04-08T00:48:49.537Z,45
2023-04-08T00:50:03.448Z,43
2023-04-08T00:51:17.650Z,44
2023-04-08T00:53:45.925Z,45
2023-04-08T00:55:00.100Z,45
2023-04-08T00:56:14.155Z,46
2023-04-08T00:58:42.379Z,45
2023-04-08T00:59:56.524Z,48
2023-04-08T01:01:10.830Z,46
2023-04-08T01:03:38.974Z,41
2023-04-08T01:04:53.045Z,47
2023-04-08T01:06:07.189Z,47
2023-04-08T01:07:21.318Z,46
2023-04-08T01:09:49.597Z,48
2023-04-08T01:11:03.731Z,48
2023-04-08T01:12:17.907Z,47
2023-04-08T01:14:46.171Z,47
2023-04-08T01:16:00.343Z,46
2023-04-08T01:17:14.395Z,47
2023-04-08T01:19:42.727Z,48
2023-04-08T01:20:56.763Z,47
2023-04-08T01:22:11.129Z,48
2023-04-08T01:24:39.187Z,47
2023-04-08T01:25:53.310Z,47
2023-04-08T01:27:07.487Z,50
2023-04-08T01:28:21.556Z,53
2023-04-08T01:30:49.990Z,47
2023-04-08T01:32:03.990Z,47
2023-04-08T01:33:18.125Z,48
2023-04-08T01:35:46.466Z,51
2023-04-08T01:37:00.505Z,50
2023-04-08T01:38:14.679Z,50
2023-04-08T01:40:42.904Z,49
2023-04-08T01:41:57.063Z,51
2023-04-08T01:43:11.329Z,50
2023-04-08T01:45:39.514Z,48
2023-04-08T01:46:53.632Z,47
2023-04-08T01:48:07.855Z,48
2023-04-08T01:49:21.828Z,48
2023-04-08T01:51:50.191Z,50
2023-04-08T01:53:04.227Z,55
2023-04-08T01:54:18.466Z,49
2023-04-08T01:56:46.750Z,57
2023-04-08T01:58:00.744Z,60
2023-04-08T01:59:14.942Z,60
2023-04-08T02:01:43.347Z,69
2023-04-08T02:02:57.432Z,65
2023-04-08T02:04:11.496Z,67
2023-04-08T02:06:39.776Z,60
2023-04-08T02:07:53.832Z,56
2023-04-08T02:09:07.950Z,55
2023-04-08T02:10:22.117Z,65
2023-04-08T02:12:50.345Z,74
2023-04-08T02:14:04.510Z,81
2023-04-08T02:15:18.705Z,70
2023-04-08T02:17:46.981Z,69
2023-04-08T02:19:01.018Z,69
2023-04-08T02:20:15.267Z,66
2023-04-08T02:22:43.411Z,74
2023-04-08T02:23:57.675Z,72
2023-04-08T02:25:11.699Z,71
2023-04-08T02:27:39.981Z,60
2023-04-08T02:28:54.113Z,71
2023-04-08T02:30:08.268Z,79
2023-04-08T02:31:22.400Z,75
2023-04-08T02:33:50.616Z,71
2023-04-08T02:35:04.793Z,58
2023-04-08T02:38:47.235Z,77
2023-04-08T02:40:01.285Z,86
2023-04-08T02:41:15.506Z,89
2023-04-08T02:43:43.977Z,80
2023-04-08T02:44:57.921Z,74
2023-04-08T02:46:11.996Z,81
2023-04-08T02:48:40.234Z,94
2023-04-08T02:49:54.396Z,93
2023-04-08T02:51:08.509Z,93
2023-04-08T02:52:22.646Z,97
2023-04-08T02:54:50.868Z,106
2023-04-08T02:56:05.155Z,98
2023-04-08T02:57:19.366Z,92
2023-04-08T02:59:47.474Z,108
2023-04-08T03:01:01.539Z,48
2023-04-08T03:02:15.785Z,100
2023-04-08T03:04:43.972Z,82
2023-04-08T03:05:58.206Z,47
2023-04-08T03:07:12.201Z,46
2023-04-08T03:09:40.570Z,52
2023-04-08T03:10:54.645Z,44
2023-04-08T03:12:08.771Z,58
2023-04-08T03:13:22.887Z,41
2023-04-08T03:15:51.187Z,45
2023-04-08T03:17:05.401Z,41
2023-04-08T03:18:19.529Z,39
2023-04-08T03:20:47.685Z,36
2023-04-08T03:22:01.804Z,42
2023-04-08T03:23:15.948Z,39
2023-04-08T03:25:44.298Z,33
2023-04-08T03:26:58.392Z,33
2023-04-08T03:28:12.506Z,34
2023-04-08T03:30:40.777Z,31
2023-04-08T03:31:55.006Z,30
2023-04-08T03:33:09.073Z,30
2023-04-08T03:34:23.204Z,32
2023-04-08T03:36:51.394Z,30
2023-04-08T03:38:05.625Z,30
2023-04-08T03:39:19.787Z,30
2023-04-08T03:41:48.061Z,28
2023-04-08T03:43:02.059Z,28
2023-04-08T03:44:16.240Z,29
2023-04-08T03:46:44.508Z,28
2023-04-08T03:47:58.874Z,28
2023-04-08T03:49:12.793Z,27
2023-04-08T03:51:41.018Z,27
2023-04-08T03:52:55.185Z,28
2023-04-08T03:54:09.329Z,27
2023-04-08T03:55:23.453Z,27
2023-04-08T03:57:51.677Z,28
2023-04-08T03:59:05.908Z,29
2023-04-08T04:00:20.026Z,26
2023-04-08T04:02:48.419Z,28
2023-04-08T04:04:02.517Z,26
2023-04-08T04:05:16.546Z,27
2023-04-08T04:07:44.770Z,27
2023-04-08T04:08:58.970Z,28
2023-04-08T04:10:13.039Z,26
2023-04-08T04:12:41.273Z,25
2023-04-08T04:13:55.541Z,27
2023-04-08T04:15:09.652Z,24
2023-04-08T04:16:23.727Z,23
2023-04-08T04:18:52.298Z,26
2023-04-08T04:20:06.102Z,26
2023-04-08T04:21:20.236Z,24
2023-04-08T04:23:48.534Z,24
2023-04-08T04:25:02.638Z,26
2023-04-08T04:26:16.805Z,23
2023-04-08T04:28:45.078Z,26
2023-04-08T04:29:59.213Z,23
2023-04-08T04:31:13.339Z,25
2023-04-08T04:33:41.533Z,24
2023-04-08T04:34:55.699Z,25
2023-04-08T04:37:23.936Z,26
2023-04-08T04:39:52.240Z,23
2023-04-08T04:41:06.383Z,25
2023-04-08T04:42:20.462Z,25
2023-04-08T04:44:48.752Z,24
2023-04-08T04:46:02.904Z,25
2023-04-08T04:47:17.034Z,26
2023-04-08T04:49:45.301Z,24
2023-04-08T04:50:59.451Z,23
2023-04-08T04:52:13.558Z,24
2023-04-08T04:54:41.815Z,25
2023-04-08T04:55:55.974Z,24
2023-04-08T04:57:10.084Z,25
2023-04-08T04:59:38.352Z,27
2023-04-08T05:00:52.505Z,26
2023-04-08T05:02:06.838Z,25
2023-04-08T05:03:20.753Z,26
2023-04-08T05:05:49.096Z,25
2023-04-08T05:07:03.154Z,27
2023-04-08T05:08:17.412Z,28
2023-04-08T05:10:45.680Z,29
2023-04-08T05:11:59.814Z,30
2023-04-08T05:13:13.858Z,29
2023-04-08T05:15:42.134Z,30
2023-04-08T05:16:56.337Z,29
2023-04-08T05:18:10.393Z,31
2023-04-08T05:20:38.662Z,23
2023-04-08T05:21:52.762Z,25
2023-04-08T05:23:06.890Z,25
2023-04-08T05:24:21.015Z,27
2023-04-08T05:26:49.357Z,23
2023-04-08T05:28:03.453Z,23
2023-04-08T05:29:17.576Z,22
2023-04-08T05:30:31.675Z,23
2023-04-08T05:31:45.923Z,26
2023-04-08T05:33:00.795Z,24
2023-04-08T05:34:14.078Z,24
2023-04-08T05:36:42.357Z,24
2023-04-08T05:37:56.517Z,24
2023-04-08T05:39:10.958Z,23
2023-04-08T05:40:24.740Z,24
2023-04-08T05:42:53.037Z,24
2023-04-08T05:44:07.162Z,26
2023-04-08T05:45:21.277Z,25
2023-04-08T05:47:49.635Z,24
2023-04-08T05:49:03.797Z,26
2023-04-08T05:50:17.858Z,26
2023-04-08T05:52:46.105Z,28
2023-04-08T05:54:00.245Z,27
2023-04-08T05:55:14.357Z,26
2023-04-08T05:57:42.616Z,24
2023-04-08T05:58:56.740Z,27
2023-04-08T06:00:11.151Z,27
2023-04-08T06:02:39.380Z,23
2023-04-08T06:03:53.463Z,24
2023-04-08T06:05:07.388Z,23
2023-04-08T06:06:21.515Z,23
2023-04-08T06:08:50.204Z,22
2023-04-08T06:10:03.927Z,23
2023-04-08T06:11:18.094Z,22
2023-04-08T06:13:46.339Z,24
2023-04-08T06:15:00.475Z,22
2023-04-08T06:16:14.634Z,22
2023-04-08T06:18:42.862Z,23
2023-04-08T06:19:56.992Z,23
2023-04-08T06:21:11.254Z,24
2023-04-08T06:23:39.402Z,23
2023-04-08T06:24:53.551Z,23
2023-04-08T06:26:07.694Z,23
2023-04-08T06:27:21.820Z,21
2023-04-08T06:29:50.150Z,21
2023-04-08T06:31:04.192Z,20
2023-04-08T06:32:18.479Z,20
2023-04-08T06:34:46.627Z,22
2023-04-08T06:36:00.759Z,20
2023-04-08T06:37:14.989Z,23
2023-04-08T06:39:43.152Z,24
2023-04-08T06:40:57.283Z,24
2023-04-08T06:42:11.567Z,26
2023-04-08T06:44:39.701Z,23
2023-04-08T06:45:53.876Z,24
2023-04-08T06:47:07.967Z,24
2023-04-08T06:48:22.093Z,26
2023-04-08T06:50:50.317Z,25
2023-04-08T06:52:04.456Z,27
2023-04-08T06:53:18.705Z,26
2023-04-08T06:55:46.888Z,29
2023-04-08T06:57:00.968Z,27
2023-04-08T06:58:15.185Z,26
2023-04-08T07:00:43.394Z,27
2023-04-08T07:01:57.626Z,26
2023-04-08T07:03:11.851Z,24
2023-04-08T07:05:39.952Z,26
2023-04-08T07:06:54.078Z,28
2023-04-08T07:08:08.218Z,27
2023-04-08T07:09:22.346Z,27
2023-04-08T07:11:50.595Z,24
2023-04-08T07:13:04.736Z,26
2023-04-08T07:14:18.890Z,25
2023-04-08T07:16:47.180Z,24
2023-04-08T07:18:01.279Z,25
2023-04-08T07:19:15.485Z,21
2023-04-08T07:21:43.665Z,26
2023-04-08T07:22:57.822Z,26
2023-04-08T07:24:11.894Z,27
2023-04-08T07:26:40.315Z,27
2023-04-08T07:27:54.371Z,26
2023-04-08T07:29:08.468Z,29
2023-04-08T07:30:22.597Z,28
2023-04-08T07:32:50.923Z,29
2023-04-08T07:34:05.106Z,28
2023-04-08T07:35:19.161Z,26
2023-04-08T07:37:47.430Z,26
2023-04-08T07:39:01.517Z,28
2023-04-08T07:40:15.660Z,28
2023-04-08T07:42:43.966Z,27
2023-04-08T07:43:58.103Z,28
2023-04-08T07:45:12.169Z,27
2023-04-08T07:47:40.488Z,30
2023-04-08T07:48:54.582Z,29
2023-04-08T07:50:08.797Z,29
2023-04-08T07:51:22.852Z,28
2023-04-08T07:55:05.335Z,27
2023-04-08T07:56:19.423Z,28
2023-04-08T07:58:47.833Z,28
2023-04-08T08:00:01.826Z,27
2023-04-08T08:01:16.044Z,25
2023-04-08T08:03:44.393Z,25
2023-04-08T08:04:58.437Z,26
2023-04-08T08:06:12.474Z,27
2023-04-08T08:08:40.707Z,27
2023-04-08T08:09:54.886Z,27
2023-04-08T08:11:09.050Z,27
2023-04-08T08:12:23.141Z,27
2023-04-08T08:14:51.378Z,27
2023-04-08T08:16:05.602Z,27
2023-04-08T08:17:19.722Z,28
2023-04-08T08:19:47.992Z,25
2023-04-08T08:21:02.057Z,26
2023-04-08T08:22:16.279Z,23
2023-04-08T08:24:44.454Z,26
2023-04-08T08:25:58.727Z,25
2023-04-08T08:27:12.738Z,27
2023-04-08T08:29:40.964Z,27
2023-04-08T08:30:55.255Z,25
2023-04-08T08:32:09.381Z,24
2023-04-08T08:33:23.425Z,27
2023-04-08T08:35:51.780Z,24
2023-04-08T08:37:05.791Z,23
2023-04-08T08:38:19.976Z,21
2023-04-08T08:40:48.246Z,21
2023-04-08T08:42:02.379Z,23
2023-04-08T08:43:16.479Z,23
2023-04-08T08:45:45.174Z,25
2023-04-08T08:46:59.014Z,23
2023-04-08T08:48:13.006Z,22
2023-04-08T08:50:41.240Z,22
2023-04-08T08:51:55.460Z,24
2023-04-08T08:53:09.532Z,20
2023-04-08T08:56:51.946Z,21
2023-04-08T08:58:06.181Z,22
2023-04-08T08:59:20.188Z,22
2023-04-08T09:01:48.651Z,21
2023-04-08T09:03:02.898Z,22
2023-04-08T09:04:17.405Z,21
2023-04-08T09:06:45.028Z,22
2023-04-08T09:07:59.173Z,20
2023-04-08T09:09:13.295Z,24
2023-04-08T09:11:41.529Z,24
2023-04-08T09:12:55.696Z,24
2023-04-08T09:14:09.789Z,23
2023-04-08T09:16:38.205Z,21
2023-04-08T09:17:52.312Z,20
2023-04-08T09:19:06.370Z,22
2023-04-08T09:20:20.431Z,22
2023-04-08T09:22:48.758Z,23
2023-04-08T09:24:02.857Z,21
2023-04-08T09:25:16.995Z,21
2023-04-08T09:27:45.317Z,24
2023-04-08T09:29:00.259Z,25
2023-04-08T09:30:13.519Z,24
2023-04-08T09:32:41.822Z,25
2023-04-08T09:33:55.932Z,22
2023-04-08T09:35:10.113Z,22
2023-04-08T09:37:38.391Z,24
2023-04-08T09:38:52.452Z,25
2023-04-08T09:40:06.676Z,23
2023-04-08T09:41:20.713Z,24
2023-04-08T09:43:49.611Z,24
2023-04-08T09:45:03.130Z,26
2023-04-08T09:46:17.437Z,25
2023-04-08T09:48:45.637Z,22
2023-04-08T09:49:59.776Z,24
2023-04-08T09:51:13.809Z,25
2023-04-08T09:53:42.063Z,21
2023-04-08T09:54:56.232Z,21
2023-04-08T09:56:10.320Z,24
2023-04-08T09:58:38.615Z,22
2023-04-08T09:59:52.755Z,21
2023-04-08T10:01:06.959Z,24
2023-04-08T10:02:21.142Z,21
2023-04-08T10:04:49.247Z,21
2023-04-08T10:06:03.489Z,23
2023-04-08T10:07:17.609Z,23
2023-04-08T10:08:32.054Z,22
2023-04-08T10:09:45.778Z,20
2023-04-08T10:11:00.067Z,23
2023-04-08T10:12:14.099Z,24
2023-04-08T10:14:42.425Z,24
2023-04-08T10:15:56.494Z,25
2023-04-08T10:17:10.590Z,25
2023-04-08T10:19:38.993Z,25
2023-04-08T10:20:52.981Z,25
2023-04-08T10:22:08.022Z,25
2023-04-08T10:23:21.311Z,27
2023-04-08T10:25:49.713Z,21
2023-04-08T10:27:03.690Z,24
2023-04-08T10:28:17.842Z,21
2023-04-08T10:30:46.121Z,21
2023-04-08T10:32:00.238Z,21
2023-04-08T10:33:14.381Z,21
2023-04-08T10:35:42.782Z,20
2023-04-08T10:36:56.739Z,20
2023-04-08T10:38:10.815Z,21
2023-04-08T10:40:39.179Z,20
2023-04-08T10:41:53.276Z,18
2023-04-08T10:43:07.488Z,21
2023-04-08T10:44:21.505Z,23
2023-04-08T10:46:49.791Z,21
2023-04-08T10:48:03.933Z,20
2023-04-08T10:49:18.065Z,20
2023-04-08T10:51:46.351Z,19
2023-04-08T10:53:00.430Z,22
2023-04-08T10:54:14.579Z,20
2023-04-08T10:56:42.850Z,23
2023-04-08T10:57:58.208Z,21
2023-04-08T10:59:11.323Z,19
2023-04-08T11:01:39.498Z,19
2023-04-08T11:02:53.672Z,19
2023-04-08T11:04:07.736Z,19
2023-04-08T11:05:21.744Z,19
2023-04-08T11:07:50.120Z,20
2023-04-08T11:09:04.213Z,21
2023-04-08T11:10:18.395Z,21
2023-04-08T11:12:46.691Z,21
2023-04-08T11:14:00.682Z,21
2023-04-08T11:15:14.845Z,20
2023-04-08T11:17:43.160Z,20
2023-04-08T11:18:57.249Z,20
2023-04-08T11:20:11.605Z,20
2023-04-08T11:22:39.661Z,20
2023-04-08T11:23:54.303Z,21
2023-04-08T11:25:07.946Z,18
2023-04-08T11:26:22.108Z,17
2023-04-08T11:28:50.337Z,16
2023-04-08T11:30:04.463Z,18
2023-04-08T11:31:18.721Z,20
2023-04-08T11:33:46.925Z,18
2023-04-08T11:35:00.950Z,17
2023-04-08T11:36:15.238Z,20
2023-04-08T11:38:43.363Z,20
2023-04-08T11:39:57.500Z,22
2023-04-08T11:41:11.700Z,22
2023-04-08T11:43:39.922Z,21
2023-04-08T11:44:54.023Z,23
2023-04-08T11:46:08.331Z,21
2023-04-08T11:47:22.555Z,25
2023-04-08T11:49:50.578Z,22
2023-04-08T11:51:04.732Z,19
2023-04-08T11:52:18.899Z,22
2023-04-08T11:54:47.176Z,19
2023-04-08T11:56:01.282Z,22
2023-04-08T11:57:15.441Z,23
2023-04-08T11:59:43.918Z,22
2023-04-08T12:00:57.758Z,21
2023-04-08T12:02:11.970Z,22
2023-04-08T12:04:40.222Z,28
2023-04-08T12:05:54.292Z,21
2023-04-08T12:07:08.653Z,23
2023-04-08T12:08:22.541Z,23
2023-04-08T12:10:50.830Z,27
2023-04-08T12:12:05.002Z,26
2023-04-08T12:13:19.094Z,22
2023-04-08T12:15:47.413Z,23
2023-04-08T12:17:01.473Z,24
2023-04-08T12:18:15.661Z,20
2023-04-08T12:20:43.890Z,22
2023-04-08T12:21:58.400Z,20
2023-04-08T12:23:12.143Z,21
2023-04-08T12:25:40.386Z,19
2023-04-08T12:26:54.662Z,19
2023-04-08T12:28:08.783Z,22
2023-04-08T12:29:22.825Z,20
2023-04-08T12:31:51.118Z,13
2023-04-08T12:33:05.296Z,13
2023-04-08T12:34:19.352Z,12
2023-04-08T12:36:47.738Z,10
2023-04-08T12:38:01.752Z,9
2023-04-08T12:39:15.901Z,10
2023-04-08T12:41:44.234Z,8
2023-04-08T12:42:58.281Z,9
2023-04-08T12:44:12.436Z,8
2023-04-08T12:46:40.728Z,10
2023-04-08T12:47:54.901Z,8
2023-04-08T12:49:09.295Z,8
2023-04-08T12:50:23.098Z,8
2023-04-08T12:52:51.362Z,9
2023-04-08T12:54:05.576Z,9
2023-04-08T12:55:19.700Z,8
2023-04-08T12:57:47.950Z,9
2023-04-08T12:59:02.049Z,9
2023-04-08T13:00:16.249Z,9
2023-04-08T13:02:44.609Z,9
2023-04-08T13:03:58.674Z,8
2023-04-08T13:05:12.678Z,9
2023-04-08T13:07:40.965Z,7
2023-04-08T13:08:55.104Z,8
2023-04-08T13:10:09.322Z,8
2023-04-08T13:11:23.393Z,8
2023-04-08T13:13:51.607Z,8
2023-04-08T13:15:05.789Z,10
2023-04-08T13:16:19.984Z,7
2023-04-08T13:18:48.249Z,7
2023-04-08T13:20:02.300Z,7
2023-04-08T13:21:16.508Z,7
2023-04-08T13:23:44.719Z,6
2023-04-08T13:24:58.834Z,7
2023-04-08T13:26:12.927Z,7
2023-04-08T13:28:56.021Z,8
2023-04-08T13:29:55.413Z,8
2023-04-08T13:31:09.674Z,8
2023-04-08T13:32:23.706Z,9
2023-04-08T13:34:51.905Z,7
2023-04-08T13:36:06.092Z,8
2023-04-08T13:37:20.180Z,8
2023-04-08T13:39:48.676Z,7
2023-04-08T13:41:02.612Z,8
2023-04-08T13:42:16.749Z,8
2023-04-08T13:44:44.995Z,9
2023-04-08T13:45:59.111Z,9
2023-04-08T13:47:13.246Z,9
2023-04-08T13:49:41.466Z,9
2023-04-08T13:50:55.677Z,9
2023-04-08T13:52:09.825Z,10
2023-04-08T13:53:23.883Z,9
2023-04-08T13:55:52.137Z,9
2023-04-08T13:57:06.288Z,10
2023-04-08T13:58:23.922Z,8
2023-04-08T14:00:48.863Z,9
2023-04-08T14:02:03.067Z,9
2023-04-08T14:03:17.068Z,8
2023-04-08T14:05:45.242Z,9
2023-04-08T14:06:59.350Z,10
2023-04-08T14:08:13.857Z,9
2023-04-08T14:10:42.317Z,9
2023-04-08T14:11:55.892Z,9
2023-04-08T14:13:10.007Z,9
2023-04-08T14:15:38.438Z,8
2023-04-08T14:16:52.528Z,8
2023-04-08T14:18:08.074Z,7
2023-04-08T14:19:20.684Z,8
2023-04-08T14:21:49.031Z,8
2023-04-08T14:23:03.128Z,9
2023-04-08T14:24:17.303Z,9
2023-04-08T14:26:45.580Z,9
2023-04-08T14:27:59.623Z,10
2023-04-08T14:29:13.741Z,10
2023-04-08T14:31:41.978Z,8
2023-04-08T14:32:56.171Z,8
2023-04-08T14:34:10.283Z,9
2023-04-08T14:36:38.583Z,9
2023-04-08T14:37:52.704Z,9
2023-04-08T14:39:06.850Z,8
2023-04-08T14:40:20.934Z,8
2023-04-08T14:42:49.271Z,9
2023-04-08T14:44:03.337Z,9
2023-04-08T14:45:17.575Z,9
2023-04-08T14:46:31.687Z,10
2023-04-08T14:47:45.927Z,9
2023-04-08T14:48:59.875Z,8
2023-04-08T14:50:14.017Z,9
2023-04-08T14:52:42.296Z,8
2023-04-08T14:53:56.502Z,8
2023-04-08T14:55:10.523Z,8
2023-04-08T14:57:38.930Z,9
2023-04-08T14:58:53.141Z,8
2023-04-08T15:00:07.063Z,8
2023-04-08T15:01:21.213Z,8
2023-04-08T15:03:49.615Z,7
2023-04-08T15:05:03.600Z,7
2023-04-08T15:06:17.823Z,8
2023-04-08T15:08:46.052Z,8
2023-04-08T15:10:00.185Z,8
2023-04-08T15:11:14.286Z,9
2023-04-08T15:13:42.546Z,7
2023-04-08T15:14:56.683Z,7
2023-04-08T15:16:10.834Z,7
2023-04-08T15:18:39.200Z,6
2023-04-08T15:19:53.205Z,6
2023-04-08T15:21:07.425Z,7
2023-04-08T15:22:21.469Z,7
2023-04-08T15:24:49.859Z,8
2023-04-08T15:26:03.937Z,7
2023-04-08T15:27:18.155Z,7
2023-04-08T15:29:46.389Z,7
2023-04-08T15:31:00.437Z,8
2023-04-08T15:32:14.646Z,8
2023-04-08T15:34:42.827Z,7
2023-04-08T15:35:56.941Z,8
2023-04-08T15:37:11.052Z,8
2023-04-08T15:39:39.402Z,8
2023-04-08T15:40:53.466Z,8
2023-04-08T15:42:07.690Z,8
2023-04-08T15:43:21.741Z,8
2023-04-08T15:45:50.056Z,8
2023-04-08T15:47:04.248Z,8
2023-04-08T15:48:23.314Z,8
2023-04-08T15:50:46.617Z,8
2023-04-08T15:52:00.692Z,8
2023-04-08T15:53:14.816Z,7
2023-04-08T15:55:43.085Z,8
2023-04-08T15:56:57.217Z,8
2023-04-08T15:58:11.470Z,8
2023-04-08T16:00:39.619Z,8
2023-04-08T16:01:53.899Z,8
2023-04-08T16:03:08.040Z,8
2023-04-08T16:04:22.135Z,8
2023-04-08T16:06:50.275Z,8
2023-04-08T16:08:04.459Z,8
2023-04-08T16:09:18.590Z,7
2023-04-08T16:11:46.887Z,8
2023-04-08T16:13:00.922Z,8
2023-04-08T16:14:15.088Z,8
2023-04-08T16:16:43.385Z,7
2023-04-08T16:17:57.552Z,8
2023-04-08T16:19:11.745Z,7
2023-04-08T16:21:39.883Z,8
2023-04-08T16:22:54.007Z,7
2023-04-08T16:24:08.139Z,7
2023-04-08T16:25:22.286Z,7
2023-04-08T16:27:50.544Z,7
2023-04-08T16:29:04.689Z,7
2023-04-08T16:30:18.831Z,7
2023-04-08T16:32:47.110Z,7
2023-04-08T16:34:01.205Z,7
2023-04-08T16:35:15.387Z,7
2023-04-08T16:37:43.589Z,7
2023-04-08T16:38:57.734Z,7
2023-04-08T16:40:12.141Z,7
2023-04-08T16:42:40.155Z,7
2023-04-08T16:43:54.264Z,8
2023-04-08T16:45:08.401Z,8
2023-04-08T16:46:22.576Z,8
2023-04-08T16:48:50.821Z,7
2023-04-08T16:50:04.963Z,8
2023-04-08T16:51:19.056Z,7
2023-04-08T16:53:47.433Z,7
2023-04-08T16:55:01.457Z,7
2023-04-08T16:56:15.646Z,7
2023-04-08T16:58:44.183Z,7
2023-04-08T16:59:58.149Z,8
2023-04-08T17:01:12.174Z,7
2023-04-08T17:03:40.517Z,7
2023-04-08T17:04:54.588Z,8
2023-04-08T17:06:08.665Z,9
2023-04-08T17:07:22.813Z,9
2023-04-08T17:09:51.043Z,9
2023-04-08T17:11:05.212Z,9
2023-04-08T17:12:19.426Z,9
2023-04-08T17:14:47.673Z,7
2023-04-08T17:16:01.723Z,7
2023-04-08T17:17:15.984Z,7
2023-04-08T17:19:44.174Z,7
2023-04-08T17:20:58.264Z,7
2023-04-08T17:22:12.368Z,6
2023-04-08T17:24:40.648Z,8
2023-04-08T17:25:54.813Z,8
2023-04-08T17:27:08.956Z,8
2023-04-08T17:28:23.033Z,7
2023-04-08T17:30:51.310Z,7
2023-04-08T17:32:05.505Z,8
2023-04-08T17:33:19.647Z,8
2023-04-08T17:35:47.957Z,8
2023-04-08T17:37:02.081Z,7
2023-04-08T17:38:16.207Z,8
2023-04-08T17:40:44.409Z,8
2023-04-08T17:41:58.556Z,8
2023-04-08T17:43:12.629Z,9
2023-04-08T17:45:41.036Z,8
2023-04-08T17:46:55.189Z,8
2023-04-08T17:48:09.549Z,9
2023-04-08T17:49:23.348Z,9
2023-04-08T17:51:51.615Z,9
2023-04-08T17:53:05.751Z,9
2023-04-08T17:54:19.895Z,10
2023-04-08T17:56:49.546Z,9
2023-04-08T17:58:02.271Z,10
2023-04-08T17:59:16.472Z,11
2023-04-08T18:01:44.886Z,9
2023-04-08T18:02:58.927Z,10
2023-04-08T18:04:13.156Z,9
2023-04-08T18:06:49.419Z,11
2023-04-08T18:08:03.546Z,10
2023-04-08T18:09:17.732Z,9
2023-04-08T18:11:46.027Z,10
2023-04-08T18:13:11.375Z,9
2023-04-08T18:14:14.201Z,12
2023-04-08T18:16:42.451Z,14
2023-04-08T18:17:56.641Z,17
2023-04-08T18:19:10.688Z,21
2023-04-08T18:21:39.040Z,21
2023-04-08T18:22:53.124Z,19
2023-04-08T18:24:09.224Z,16
2023-04-08T18:25:21.385Z,13
2023-04-08T18:27:49.698Z,13
2023-04-08T18:29:03.787Z,11
2023-04-08T18:30:18.013Z,14
2023-04-08T18:32:46.268Z,13
2023-04-08T18:34:00.368Z,15
2023-04-08T18:35:14.455Z,14
2023-04-08T18:37:42.723Z,14
2023-04-08T18:38:56.954Z,14
2023-04-08T18:40:10.992Z,12
2023-04-08T18:42:39.272Z,14
2023-04-08T18:43:53.516Z,16
2023-04-08T18:45:07.585Z,16
2023-04-08T18:46:21.653Z,17
2023-04-08T18:48:49.939Z,17
2023-04-08T18:50:04.046Z,19
2023-04-08T18:51:18.226Z,19
2023-04-08T18:53:46.502Z,20
2023-04-08T18:55:00.557Z,19
2023-04-08T18:56:14.712Z,18
2023-04-08T18:58:43.241Z,19
2023-04-08T18:59:57.113Z,20
2023-04-08T19:01:11.361Z,20
2023-04-08T19:03:39.562Z,16
2023-04-08T19:04:53.646Z,18
2023-04-08T19:06:07.772Z,18
2023-04-08T19:07:21.912Z,17
2023-04-08T19:09:50.178Z,16
2023-04-08T19:11:04.296Z,16
2023-04-08T19:12:18.482Z,16
2023-04-08T19:14:46.748Z,17
2023-04-08T19:16:00.833Z,16
2023-04-08T19:17:14.974Z,16
2023-04-08T19:19:43.230Z,16
2023-04-08T19:20:57.377Z,16
2023-04-08T19:22:11.696Z,16
2023-04-08T19:24:39.842Z,15
2023-04-08T19:25:53.897Z,17
2023-04-08T19:27:08.084Z,18
2023-04-08T19:28:22.201Z,16
2023-04-08T19:30:51.142Z,16
2023-04-08T19:32:04.594Z,19
2023-04-08T19:33:18.704Z,16
2023-04-08T19:35:46.976Z,18
2023-04-08T19:37:01.088Z,18
2023-04-08T19:38:15.231Z,17
2023-04-08T19:40:43.499Z,17
2023-04-08T19:41:57.656Z,16
2023-04-08T19:43:12.010Z,17
2023-04-08T19:44:25.917Z,18
2023-04-08T19:45:40.109Z,18
2023-04-08T19:46:54.274Z,17
2023-04-08T19:48:08.308Z,15
2023-04-08T19:49:22.436Z,19
2023-04-08T19:51:50.685Z,19
2023-04-08T19:53:04.826Z,19
2023-04-08T19:54:19.051Z,20
2023-04-08T19:56:47.345Z,19
2023-04-08T19:58:01.378Z,20
2023-04-08T19:59:15.488Z,20
2023-04-08T20:01:43.924Z,20
2023-04-08T20:02:58.179Z,19
2023-04-08T20:04:12.365Z,21
2023-04-08T20:06:40.320Z,21
2023-04-08T20:07:54.440Z,22
2023-04-08T20:09:08.595Z,21
2023-04-08T20:10:22.716Z,22
2023-04-08T20:12:50.961Z,22
2023-04-08T20:14:05.122Z,22
2023-04-08T20:15:24.593Z,23
2023-04-08T20:17:47.645Z,25
2023-04-08T20:19:01.660Z,24
2023-04-08T20:20:15.849Z,22
2023-04-08T20:22:44.054Z,24
2023-04-08T20:23:58.185Z,26
2023-04-08T20:25:12.350Z,26
2023-04-08T20:27:40.556Z,26
2023-04-08T20:28:57.168Z,27
2023-04-08T20:30:08.839Z,27
2023-04-08T20:31:23.061Z,26
2023-04-08T20:33:51.248Z,28
2023-04-08T20:35:05.371Z,27
2023-04-08T20:36:19.519Z,26
2023-04-08T20:38:47.824Z,29
2023-04-08T20:40:01.915Z,28
2023-04-08T20:41:16.036Z,29
2023-04-08T20:43:44.313Z,27
2023-04-08T20:44:58.452Z,32
2023-04-08T20:46:12.543Z,30
2023-04-08T20:48:40.821Z,33
2023-04-08T20:49:54.996Z,33
2023-04-08T20:51:09.108Z,33
2023-04-08T20:52:23.252Z,36
2023-04-08T20:54:51.498Z,35
2023-04-08T20:56:05.738Z,33
2023-04-08T20:57:19.791Z,35
2023-04-08T20:59:48.057Z,35
2023-04-08T21:01:02.228Z,35
2023-04-08T21:02:16.419Z,34
2023-04-08T21:04:44.740Z,34
2023-04-08T21:05:58.713Z,33
2023-04-08T21:07:12.834Z,34
2023-04-08T21:09:41.079Z,32
2023-04-08T21:10:55.299Z,33
2023-04-08T21:12:09.550Z,33
2023-04-08T21:13:23.609Z,31
2023-04-08T21:15:51.743Z,30
2023-04-08T21:17:05.920Z,32
2023-04-08T21:18:20.126Z,31
2023-04-08T21:20:48.417Z,31
2023-04-08T21:22:02.436Z,30
2023-04-08T21:23:16.570Z,28
2023-04-08T21:25:44.843Z,28
2023-04-08T21:26:58.971Z,29
2023-04-08T21:28:13.076Z,28
2023-04-08T21:30:41.337Z,26
2023-04-08T21:31:55.672Z,26
2023-04-08T21:33:09.704Z,25
2023-04-08T21:34:23.766Z,25
2023-04-08T21:36:52.019Z,25
2023-04-08T21:38:06.154Z,25
2023-04-08T21:39:20.357Z,25
2023-04-08T21:41:48.661Z,26
2023-04-08T21:43:02.743Z,25
2023-04-08T21:44:16.874Z,26
2023-04-08T21:46:45.107Z,25
2023-04-08T21:47:59.301Z,25
2023-04-08T21:49:13.365Z,24
2023-04-08T21:51:41.734Z,26
2023-04-08T21:52:55.802Z,25
2023-04-08T21:54:09.915Z,23
2023-04-08T21:55:24.043Z,23
2023-04-08T21:57:52.291Z,25
2023-04-08T21:59:06.439Z,24
2023-04-08T22:00:20.527Z,26
2023-04-08T22:02:48.983Z,26
2023-04-08T22:04:03.151Z,25
2023-04-08T22:05:17.086Z,26
2023-04-08T22:07:45.397Z,25
2023-04-08T22:08:59.571Z,26
2023-04-08T22:10:13.628Z,26
2023-04-08T22:12:41.911Z,26
2023-04-08T22:13:56.020Z,25
2023-04-08T22:15:10.204Z,24
2023-04-08T22:17:38.554Z,25
2023-04-08T22:18:52.687Z,26
2023-04-08T22:20:06.697Z,25
2023-04-08T22:21:20.808Z,24
2023-04-08T22:23:49.184Z,25
2023-04-08T22:25:03.224Z,23
2023-04-08T22:26:17.436Z,24
2023-04-08T22:28:45.705Z,24
2023-04-08T22:29:59.754Z,23
2023-04-08T22:31:13.948Z,23
2023-04-08T22:33:42.204Z,23
2023-04-08T22:34:56.302Z,23
2023-04-08T22:36:10.479Z,23
2023-04-08T22:37:24.585Z,22
2023-04-08T22:39:52.840Z,21
2023-04-08T22:41:06.960Z,23
2023-04-08T22:42:21.096Z,22
2023-04-08T22:44:49.383Z,21
2023-04-08T22:46:03.549Z,21
2023-04-08T22:47:17.693Z,21
2023-04-08T22:49:45.981Z,21
2023-04-08T22:51:00.050Z,21
2023-04-08T22:52:14.177Z,21
2023-04-08T22:54:42.447Z,20
2023-04-08T22:55:56.553Z,20
2023-04-08T22:57:10.707Z,21
2023-04-08T22:59:39.054Z,20
2023-04-08T23:00:53.136Z,21
2023-04-08T23:02:07.340Z,20
2023-04-08T23:03:21.370Z,20
2023-04-08T23:05:49.636Z,21
2023-04-08T23:07:03.786Z,21
2023-04-08T23:08:17.909Z,20
2023-04-08T23:10:46.192Z,20
2023-04-08T23:12:00.434Z,22
2023-04-08T23:13:14.427Z,20